Time;durP1;ratioP1;P1;durP2;ratioP2;P2;SDS_P1;SDS_P2;PMS_P1;PMS_P2;Temp;Humidity;BMP_temperature;BMP_pressure;BME280_temperature;BME280_humidity;BME280_pressure;Samples;Min_cycle;Max_cycle;Signal;HPM_P1;HPM_P2
2021/10/17 00:01:57;;;;;;;12.55;9.10;;;10.00;99.90;;;9.75;100.00;101330.13;4117782;28;20027;-68
2021/10/17 00:03:58;;;;;;;11.13;9.30;;;10.00;99.90;;;9.83;100.00;101319.72;4117402;28;20034;-68
2021/10/17 00:05:59;;;;;;;12.18;8.77;;;10.00;99.90;;;9.77;100.00;101315.00;4118524;28;20035;-68
2021/10/17 00:08:00;;;;;;;10.65;8.70;;;10.10;99.90;;;9.74;100.00;101317.91;4118622;28;20033;-68
2021/10/17 00:10:04;;;;;;;12.38;8.30;;;10.00;99.90;;;9.65;100.00;101319.56;4117365;28;20454;-68
2021/10/17 00:12:08;;;;;;;10.23;8.00;;;10.00;99.90;;;9.53;100.00;101312.75;4117499;28;20109;-68
2021/10/17 00:14:08;;;;;;;11.57;8.02;;;10.00;99.90;;;9.57;100.00;101319.41;4118538;28;20035;-68
2021/10/17 00:16:09;;;;;;;11.45;9.23;;;10.00;99.90;;;9.53;100.00;101312.75;4118225;28;20042;-68
2021/10/17 00:18:10;;;;;;;11.10;8.82;;;9.90;99.90;;;9.58;100.00;101315.81;4118172;28;20039;-68
2021/10/17 00:20:15;;;;;;;9.60;8.45;;;9.90;99.90;;;9.58;100.00;101318.44;4118548;28;20034;-68
2021/10/17 00:22:16;;;;;;;9.88;8.15;;;9.90;99.90;;;9.56;100.00;101315.09;4117357;28;20034;-68
2021/10/17 00:24:17;;;;;;;11.05;8.43;;;9.90;99.90;;;9.48;100.00;101320.22;4117300;28;20053;-68
2021/10/17 00:26:18;;;;;;;10.80;8.07;;;9.90;99.90;;;9.45;100.00;101317.84;4117045;28;20035;-68
2021/10/17 00:28:18;;;;;;;11.40;7.90;;;9.80;99.90;;;9.45;100.00;101318.69;4118480;28;20034;-68
2021/10/17 00:30:20;;;;;;;11.07;8.30;;;9.80;99.90;;;9.33;100.00;101306.59;4118522;28;20022;-68
2021/10/17 00:32:21;;;;;;;10.15;8.05;;;9.80;99.90;;;9.33;100.00;101311.03;4116860;28;20023;-68
2021/10/17 00:34:22;;;;;;;10.55;7.32;;;9.70;99.90;;;9.25;100.00;101308.25;4118140;28;20570;-68
2021/10/17 00:36:28;;;;;;;9.45;8.38;;;9.70;99.90;;;9.28;100.00;101307.97;4118247;28;20530;-68
2021/10/17 00:38:29;;;;;;;10.43;8.20;;;9.70;99.90;;;9.30;100.00;101306.03;4118281;28;20049;-68
2021/10/17 00:40:30;;;;;;;10.80;8.45;;;9.70;99.90;;;9.30;100.00;101311.28;4118167;28;20035;-68
2021/10/17 00:42:32;;;;;;;9.88;8.05;;;9.60;99.90;;;9.30;100.00;101306.03;4116753;28;20027;-68
2021/10/17 00:44:32;;;;;;;14.13;9.25;;;9.70;99.90;;;9.31;100.00;101311.19;4117034;28;20517;-68
2021/10/17 00:46:33;;;;;;;11.23;8.00;;;9.60;99.90;;;9.36;100.00;101316.88;4117828;28;20117;-68
2021/10/17 00:48:34;;;;;;;10.38;7.40;;;9.70;99.90;;;9.30;100.00;101311.28;4118015;28;20019;-68
2021/10/17 00:50:35;;;;;;;9.82;7.55;;;9.70;99.90;;;9.27;100.00;101311.56;4117958;28;20037;-68
2021/10/17 00:52:40;;;;;;;8.77;7.82;;;9.70;99.90;;;9.23;100.00;101310.16;4118074;28;20027;-68
2021/10/17 00:54:43;;;;;;;12.70;7.80;;;9.60;99.90;;;9.14;100.00;101317.06;4117139;28;20018;-68
2021/10/17 00:56:45;;;;;;;9.95;7.47;;;9.60;99.90;;;9.12;100.00;101323.41;4118018;28;20033;-68
2021/10/17 00:58:46;;;;;;;11.13;7.22;;;9.50;99.90;;;9.16;100.00;101323.03;4116785;28;20041;-68
2021/10/17 01:00:47;;;;;;;9.00;8.05;;;9.60;99.90;;;9.18;100.00;101325.53;4116989;28;20058;-68
2021/10/17 01:02:48;;;;;;;10.10;7.95;;;9.50;99.90;;;9.22;100.00;101329.56;4117787;28;20573;-68
2021/10/17 01:04:49;;;;;;;9.15;8.07;;;9.60;99.90;;;9.26;100.00;101325.69;4100686;28;20066;-68
2021/10/17 01:06:50;;;;;;;9.75;7.95;;;9.60;99.90;;;9.22;100.00;101321.66;4132713;28;20451;-68
2021/10/17 01:08:51;;;;;;;12.13;8.23;;;9.60;99.90;;;9.16;100.00;101330.09;4089159;29;20026;-68
2021/10/17 01:10:57;;;;;;;11.27;7.78;;;9.60;99.90;;;9.14;100.00;101324.13;4117874;28;20479;-68
2021/10/17 01:12:58;;;;;;;10.77;7.60;;;9.50;99.90;;;9.14;100.00;101321.50;4116314;28;20088;-68
2021/10/17 01:14:59;;;;;;;10.25;8.18;;;9.50;99.90;;;9.08;100.00;101316.78;4115941;28;20035;-68
2021/10/17 01:17:01;;;;;;;8.75;7.45;;;9.50;99.90;;;9.07;100.00;101320.34;4116290;28;20049;-68
2021/10/17 01:19:02;;;;;;;8.48;7.68;;;9.50;99.90;;;9.00;100.00;101304.25;4116655;28;20089;-68
2021/10/17 01:21:04;;;;;;;9.63;8.35;;;9.40;99.90;;;9.00;100.00;101303.41;4117704;28;20027;-68
2021/10/17 01:23:05;;;;;;;9.50;8.02;;;9.40;99.90;;;8.94;100.00;101303.94;4117626;28;20049;-68
2021/10/17 01:25:06;;;;;;;10.73;8.20;;;9.40;99.90;;;9.02;100.00;101297.06;4117791;28;20026;-68
2021/10/17 01:27:07;;;;;;;9.77;8.15;;;9.30;99.90;;;8.97;100.00;101294.00;4117686;28;20031;-68
2021/10/17 01:29:09;;;;;;;8.48;7.30;;;9.40;99.90;;;8.94;100.00;101304.78;4116511;28;20066;-68
2021/10/17 01:31:09;;;;;;;9.48;7.57;;;9.30;99.90;;;8.93;100.00;101305.75;4116393;28;20027;-68
2021/10/17 01:33:11;;;;;;;9.70;7.75;;;9.40;99.90;;;8.99;100.00;101307.84;4117502;28;20043;-68
2021/10/17 01:35:12;;;;;;;8.55;6.97;;;9.30;99.90;;;8.97;100.00;101299.25;4116399;28;20034;-68
2021/10/17 01:37:13;;;;;;;10.23;7.95;;;9.30;99.90;;;9.02;100.00;101296.25;4117647;28;20031;-68
2021/10/17 01:39:18;;;;;;;11.32;7.80;;;9.30;99.90;;;8.85;100.00;101300.31;4117535;28;20035;-68
2021/10/17 01:41:19;;;;;;;10.07;7.88;;;9.30;99.90;;;8.77;100.00;101306.25;4116562;28;20424;-68
2021/10/17 01:43:20;;;;;;;9.18;7.85;;;9.20;99.90;;;8.75;100.00;101300.25;4117515;28;20035;-68
2021/10/17 01:45:21;;;;;;;11.40;7.95;;;9.20;99.90;;;8.77;100.00;101298.34;4116399;28;20034;-68
2021/10/17 01:47:22;;;;;;;11.02;7.30;;;9.20;99.90;;;8.80;100.00;101300.72;4115915;28;20039;-68
2021/10/17 01:49:23;;;;;;;9.82;7.65;;;9.20;99.90;;;8.77;100.00;101303.63;4117633;28;20026;-68
2021/10/17 01:51:24;;;;;;;9.90;7.35;;;9.20;99.90;;;8.75;100.00;101304.72;4117487;28;20438;-68
2021/10/17 01:53:28;;;;;;;11.63;8.18;;;9.20;99.90;;;8.79;100.00;101300.84;4116329;28;20082;-68
2021/10/17 01:55:29;;;;;;;8.90;7.57;;;9.20;99.90;;;8.84;100.00;101296.03;4116122;28;20023;-68
2021/10/17 01:57:30;;;;;;;12.75;8.30;;;9.20;99.90;;;8.85;100.00;101292.41;4117446;28;20034;-68
2021/10/17 01:59:31;;;;;;;8.93;7.80;;;9.20;99.90;;;8.82;100.00;101298.78;4117357;28;20085;-68
2021/10/17 02:01:32;;;;;;;10.55;7.90;;;9.20;99.90;;;8.77;100.00;101302.78;4115789;28;20136;-68
2021/10/17 02:03:33;;;;;;;13.55;8.48;;;9.20;99.90;;;8.74;100.00;101295.13;4116043;28;20500;-68
2021/10/17 02:05:34;;;;;;;8.63;7.63;;;9.20;99.90;;;8.71;100.00;101293.59;4116204;28;20498;-68
2021/10/17 02:07:35;;;;;;;9.02;7.53;;;9.20;99.90;;;8.78;100.00;101294.72;4117151;28;20039;-68
2021/10/17 02:09:35;;;;;;;9.82;7.93;;;9.20;99.90;;;8.79;100.00;101295.56;4116035;28;20573;-68
2021/10/17 02:11:36;;;;;;;10.80;8.00;;;9.20;99.90;;;8.78;100.00;101300.00;4117207;28;20027;-68
2021/10/17 02:13:38;;;;;;;10.23;7.40;;;9.20;99.90;;;8.77;100.00;101289.63;4100147;28;20031;-68
2021/10/17 02:15:39;;;;;;;9.70;8.07;;;9.20;99.90;;;8.79;100.00;101298.19;4115967;28;20510;-68
2021/10/17 02:17:43;;;;;;;8.55;7.45;;;9.20;99.90;;;8.81;100.00;101294.47;4115510;28;20046;-68
2021/10/17 02:19:45;;;;;;;9.85;7.35;;;9.10;99.90;;;8.81;100.00;101293.66;4117004;28;20035;-68
2021/10/17 02:21:45;;;;;;;11.52;8.52;;;9.20;99.90;;;8.81;100.00;101291.03;4115968;28;20442;-68
2021/10/17 02:23:48;;;;;;;8.45;7.35;;;9.20;99.90;;;8.81;100.00;101293.66;4115904;28;20065;-67
2021/10/17 02:25:49;;;;;;;11.05;8.30;;;9.20;99.90;;;8.80;100.00;101290.19;4117795;28;20039;-67
2021/10/17 02:27:50;;;;;;;10.95;8.18;;;9.20;99.90;;;8.90;100.00;101287.59;4119789;28;20054;-68
2021/10/17 02:29:50;;;;;;;10.80;7.85;;;9.20;99.90;;;8.82;100.00;101288.25;4118757;28;20033;-68
2021/10/17 02:31:51;;;;;;;10.18;7.57;;;9.30;99.90;;;8.72;100.00;101271.59;4119624;28;20390;-68
2021/10/17 02:33:52;;;;;;;9.38;8.38;;;9.20;99.90;;;8.80;100.00;101277.03;4118648;28;20154;-68
2021/10/17 02:35:53;;;;;;;10.75;8.43;;;9.20;99.90;;;8.81;100.00;101283.16;4119795;28;20114;-68
2021/10/17 02:37:54;;;;;;;8.77;7.03;;;9.20;99.90;;;8.78;100.00;101278.94;4119796;28;20023;-68
2021/10/17 02:39:55;;;;;;;9.73;7.55;;;9.30;99.90;;;8.79;100.00;101290.31;4118725;28;20035;-68
2021/10/17 02:41:56;;;;;;;9.00;7.85;;;9.20;99.90;;;8.78;100.00;101275.50;4118479;28;20502;-68
2021/10/17 02:43:57;;;;;;;8.93;7.18;;;9.20;99.90;;;8.80;100.00;101278.84;4119667;28;20030;-68
2021/10/17 02:45:58;;;;;;;9.35;7.28;;;9.20;99.90;;;8.72;100.00;101276.84;4118594;28;20510;-68
2021/10/17 02:47:59;;;;;;;7.95;7.15;;;9.20;99.90;;;8.73;100.00;101275.88;4119649;28;20042;-68
2021/10/17 02:49:59;;;;;;;9.43;8.00;;;9.20;99.90;;;8.74;100.00;101268.84;4119464;28;20031;-67
2021/10/17 02:52:00;;;;;;;9.43;7.65;;;9.20;99.90;;;8.75;100.00;101273.94;4119568;28;20035;-68
2021/10/17 02:54:01;;;;;;;9.07;7.60;;;9.20;99.90;;;8.73;100.00;101262.75;4119636;28;20034;-68
2021/10/17 02:56:02;;;;;;;10.05;8.13;;;9.20;99.90;;;8.78;100.00;101257.09;4119530;28;20574;-68
2021/10/17 02:58:03;;;;;;;11.02;8.55;;;9.20;99.90;;;8.82;100.00;101264.59;4118307;28;20023;-68
2021/10/17 03:00:06;;;;;;;12.60;8.70;;;9.20;99.90;;;8.84;100.00;101267.09;4119614;28;20033;-68
2021/10/17 03:02:07;;;;;;;9.15;7.82;;;9.20;99.90;;;8.76;100.00;101273.00;4118991;28;20019;-68
2021/10/17 03:04:08;;;;;;;10.05;7.72;;;9.20;99.90;;;8.73;100.00;101270.63;4118299;28;20034;-68
2021/10/17 03:06:08;;;;;;;10.65;8.18;;;9.20;99.90;;;8.68;100.00;101261.47;4119256;28;20117;-68
2021/10/17 03:08:09;;;;;;;16.05;7.97;;;9.20;99.90;;;8.64;100.00;101263.53;4118134;28;20042;-68
2021/10/17 03:10:10;;;;;;;9.52;8.07;;;9.20;99.90;;;8.62;100.00;101262.84;4118074;28;20027;-68
2021/10/17 03:12:11;;;;;;;9.43;7.35;;;9.10;99.90;;;8.66;100.00;101258.97;4118171;28;20090;-68
2021/10/17 03:14:14;;;;;;;7.75;6.95;;;9.10;99.90;;;8.69;100.00;101263.97;4119262;28;20072;-68
2021/10/17 03:16:15;;;;;;;9.32;7.78;;;9.20;99.90;;;8.76;100.00;101259.84;4118792;28;20684;-68
2021/10/17 03:18:15;;;;;;;9.15;6.93;;;9.20;99.90;;;8.76;100.00;101259.84;4119142;28;20031;-68
2021/10/17 03:20:16;;;;;;;8.38;7.30;;;9.20;99.90;;;8.75;100.00;101255.53;4118067;28;20058;-68
2021/10/17 03:22:18;;;;;;;11.80;7.78;;;9.20;99.90;;;8.75;100.00;101255.53;4119226;28;20051;-68
2021/10/17 03:24:19;;;;;;;11.02;8.00;;;9.20;99.90;;;8.75;100.00;101252.09;4117890;28;20039;-68
2021/10/17 03:26:20;;;;;;;9.52;7.93;;;9.20;99.90;;;8.80;100.00;101255.16;4117717;28;20030;-68
2021/10/17 03:28:21;;;;;;;8.95;7.38;;;9.20;99.90;;;8.69;100.00;101245.53;4119232;28;20462;-68
2021/10/17 03:30:23;;;;;;;8.85;7.40;;;9.10;99.90;;;8.59;100.00;101252.56;4119142;28;20034;-68
2021/10/17 03:32:24;;;;;;;8.57;7.22;;;9.10;99.90;;;8.57;100.00;101254.47;4117689;28;20027;-68
2021/10/17 03:34:25;;;;;;;12.80;7.97;;;9.20;99.90;;;8.67;100.00;101254.53;4117824;28;20027;-68
2021/10/17 03:36:26;;;;;;;8.77;7.32;;;9.20;99.90;;;8.71;100.00;101253.31;4118319;28;20041;-68
2021/10/17 03:38:27;;;;;;;10.35;7.75;;;9.10;99.90;;;8.68;100.00;101256.22;4117879;28;20047;-68
2021/10/17 03:40:28;;;;;;;10.20;7.30;;;9.10;99.90;;;8.64;100.00;101255.63;4118993;28;20088;-68
2021/10/17 03:42:29;;;;;;;11.45;7.47;;;9.10;99.90;;;8.61;100.00;101252.44;4117653;28;20039;-68
2021/10/17 03:44:30;;;;;;;9.27;7.50;;;9.10;99.90;;;8.62;100.00;101251.47;4117711;28;20037;-68
2021/10/17 03:46:31;;;;;;;10.10;7.93;;;9.10;99.90;;;8.66;100.00;101243.19;4117391;28;20037;-68
2021/10/17 03:48:33;;;;;;;11.73;7.57;;;9.10;99.90;;;8.65;100.00;101244.16;4118827;28;20107;-68
2021/10/17 03:50:34;;;;;;;12.45;7.95;;;9.10;99.90;;;8.72;100.00;101252.38;4118767;28;20053;-68
2021/10/17 03:52:35;;;;;;;9.50;8.45;;;9.10;99.90;;;8.68;100.00;101245.69;4117865;28;20019;-68
2021/10/17 03:54:41;;;;;;;9.77;7.32;;;9.10;99.90;;;8.73;100.00;101254.00;4117600;28;20031;-68
2021/10/17 03:56:41;;;;;;;8.65;7.47;;;9.10;99.90;;;8.73;100.00;101244.31;4118783;28;20053;-68
2021/10/17 03:58:42;;;;;;;11.23;8.52;;;9.10;99.90;;;8.67;100.00;101252.75;4118653;28;20030;-68
2021/10/17 04:00:43;;;;;;;9.60;7.97;;;9.20;99.90;;;8.63;100.00;101261.84;4118819;28;20049;-68
2021/10/17 04:02:44;;;;;;;10.70;7.75;;;9.10;99.90;;;8.64;100.00;101266.16;4118510;28;20034;-68
2021/10/17 04:04:45;;;;;;;9.13;7.75;;;9.10;99.90;;;8.55;100.00;101256.41;4118686;28;20030;-68
2021/10/17 04:06:46;;;;;;;10.70;8.15;;;9.10;99.90;;;8.61;100.00;101266.41;4117376;28;20027;-68
2021/10/17 04:08:47;;;;;;;8.93;7.90;;;9.10;99.90;;;8.57;100.00;101267.63;4117456;28;20023;-68
2021/10/17 04:10:48;;;;;;;9.02;7.93;;;9.10;99.90;;;8.60;100.00;101269.19;4118645;28;20398;-67
2021/10/17 04:12:49;;;;;;;10.98;7.75;;;9.10;99.90;;;8.69;100.00;101273.66;4118616;28;20057;-68
2021/10/17 04:14:49;;;;;;;10.00;7.03;;;9.10;99.90;;;8.70;100.00;101270.88;4118495;28;20487;-68
2021/10/17 04:16:50;;;;;;;9.98;6.97;;;9.10;99.90;;;8.64;100.00;101281.94;4118125;28;20038;-68
2021/10/17 04:18:51;;;;;;;11.70;7.38;;;9.10;99.90;;;8.56;100.00;101263.34;4118456;28;20490;-67
2021/10/17 04:20:52;;;;;;;9.95;7.55;;;9.10;99.90;;;8.59;100.00;101272.78;4101292;29;20034;-68
2021/10/17 04:22:53;;;;;;;11.38;7.82;;;9.10;99.90;;;8.54;100.00;101274.97;4115139;28;20037;-67
2021/10/17 04:24:54;;;;;;;9.95;7.78;;;9.00;99.90;;;8.52;100.00;101275.09;4118465;28;20454;-68
2021/10/17 04:26:55;;;;;;;9.48;7.50;;;9.00;99.90;;;8.58;100.00;101279.81;4118393;28;20046;-68
2021/10/17 04:28:56;;;;;;;10.00;7.60;;;9.00;99.90;;;8.57;100.00;101270.25;4117155;28;20033;-68
2021/10/17 04:30:57;;;;;;;8.23;6.88;;;9.00;99.90;;;8.54;100.00;101270.50;4118349;28;20031;-68
2021/10/17 04:32:58;;;;;;;8.93;7.28;;;9.00;99.90;;;8.45;100.00;101273.97;4116820;28;20057;-68
2021/10/17 04:34:59;;;;;;;8.15;6.68;;;8.90;99.90;;;8.46;100.00;101282.66;4117235;28;20115;-67
2021/10/17 04:37:01;;;;;;;8.07;6.82;;;8.90;99.90;;;8.55;100.00;101271.34;4117087;28;20031;-68
2021/10/17 04:39:06;;;;;;;7.53;6.65;;;8.90;99.90;;;8.49;100.00;101267.44;4118258;28;20081;-68
2021/10/17 04:41:07;;;;;;;13.20;8.65;;;8.90;99.90;;;8.39;100.00;101278.88;4117939;28;20015;-68
2021/10/17 04:43:09;;;;;;;10.82;7.53;;;8.80;99.90;;;8.37;100.00;101276.38;4118205;28;20037;-68
2021/10/17 04:45:10;;;;;;;7.85;7.05;;;8.80;99.90;;;8.37;100.00;101272.91;4118221;28;20034;-68
2021/10/17 04:47:11;;;;;;;9.15;6.97;;;8.80;99.90;;;8.37;100.00;101267.66;4116643;28;20074;-68
2021/10/17 04:49:12;;;;;;;8.40;6.68;;;8.80;99.90;;;8.37;100.00;101272.91;4116743;28;20027;-68
2021/10/17 04:51:13;;;;;;;11.27;8.07;;;8.80;99.90;;;8.43;100.00;101262.72;4117006;28;20035;-68
2021/10/17 04:53:14;;;;;;;8.57;7.75;;;8.90;99.90;;;8.42;100.00;101276.00;4118093;28;20479;-68
2021/10/17 04:55:15;;;;;;;9.20;7.15;;;8.80;99.90;;;8.34;100.00;101258.22;4118047;28;20111;-68
2021/10/17 04:57:16;;;;;;;9.40;7.28;;;8.80;99.90;;;8.28;100.00;101259.59;4116865;28;20037;-68
2021/10/17 04:59:21;;;;;;;9.95;7.32;;;8.80;99.90;;;8.29;100.00;101263.88;4118047;28;20034;-68
2021/10/17 05:01:22;;;;;;;8.55;7.10;;;8.70;99.90;;;8.31;100.00;101264.59;4117709;28;20027;-68
2021/10/17 05:03:23;;;;;;;9.82;6.97;;;8.80;99.90;;;8.32;100.00;101266.25;4117939;28;20038;-68
2021/10/17 05:05:24;;;;;;;9.85;8.00;;;8.80;99.90;;;8.34;100.00;101261.69;4116809;28;20030;-68
2021/10/17 05:07:25;;;;;;;12.85;7.47;;;8.70;99.90;;;8.39;100.00;101257.84;4117942;28;20057;-68
2021/10/17 05:09:26;;;;;;;9.55;7.88;;;8.70;99.90;;;8.29;100.00;101260.41;4116797;28;20019;-68
2021/10/17 05:11:27;;;;;;;9.90;7.60;;;8.70;99.90;;;8.17;100.00;101257.00;4117916;28;20113;-68
2021/10/17 05:13:28;;;;;;;8.75;7.30;;;8.70;99.90;;;8.11;100.00;101254.03;4116756;28;20118;-68
2021/10/17 05:15:29;;;;;;;9.57;8.13;;;8.70;99.90;;;8.11;100.00;101264.56;4117881;28;20498;-68
2021/10/17 05:17:30;;;;;;;9.07;7.68;;;8.60;99.90;;;8.16;100.00;101254.47;4117403;28;20051;-68
2021/10/17 05:19:32;;;;;;;8.57;7.68;;;8.60;99.90;;;8.21;100.00;101250.50;4117785;28;20027;-68
2021/10/17 05:21:33;;;;;;;8.40;7.38;;;8.60;99.90;;;8.19;100.00;101256.84;4116386;28;20731;-67
2021/10/17 05:23:35;;;;;;;8.23;7.25;;;8.60;99.90;;;8.08;100.00;101251.66;4117796;28;20092;-68
2021/10/17 05:25:36;;;;;;;9.30;7.97;;;8.60;99.90;;;8.04;100.00;101255.50;4116609;28;20031;-68
2021/10/17 05:27:37;;;;;;;8.95;7.10;;;8.50;99.90;;;8.09;100.00;101246.31;4117567;28;20027;-67
2021/10/17 05:29:38;;;;;;;10.35;7.65;;;8.50;99.90;;;8.17;100.00;101240.38;4117597;28;20033;-68
2021/10/17 05:31:39;;;;;;;8.35;6.95;;;8.50;99.90;;;8.07;100.00;101239.47;4115981;28;20034;-68
2021/10/17 05:33:40;;;;;;;8.50;6.95;;;8.60;99.90;;;8.13;100.00;101257.38;4117590;28;20102;-68
2021/10/17 05:35:41;;;;;;;9.20;7.43;;;8.60;99.90;;;8.08;100.00;101256.91;4117609;28;20399;-67
2021/10/17 05:37:42;;;;;;;8.35;7.53;;;8.60;99.90;;;8.08;100.00;101256.91;4116215;28;20114;-68
2021/10/17 05:39:43;;;;;;;8.35;7.45;;;8.50;99.90;;;8.08;100.00;101257.75;4116437;28;20031;-68
2021/10/17 05:41:44;;;;;;;9.07;7.18;;;8.60;99.90;;;8.10;100.00;101262.88;4116365;28;20019;-68
2021/10/17 05:43:45;;;;;;;9.43;7.85;;;8.60;99.90;;;8.13;100.00;101257.38;4105228;28;20031;-68
2021/10/17 05:45:45;;;;;;;8.55;6.90;;;8.60;99.90;;;8.03;100.00;101264.34;4116220;28;20038;-68
2021/10/17 05:47:46;;;;;;;9.27;7.63;;;8.50;99.90;;;8.10;100.00;101270.75;4117065;28;20121;-68
2021/10/17 05:49:47;;;;;;;8.80;7.90;;;8.50;99.90;;;8.11;100.00;101262.75;4117250;28;20019;-68
2021/10/17 05:51:48;;;;;;;9.95;7.53;;;8.60;99.90;;;8.15;100.00;101268.59;4117522;28;20023;-68
2021/10/17 05:53:49;;;;;;;10.38;8.38;;;8.60;99.90;;;8.12;100.00;101258.34;4117267;28;20031;-68
2021/10/17 05:55:50;;;;;;;10.77;8.82;;;8.60;99.90;;;8.15;100.00;101263.34;4117533;28;20038;-68
2021/10/17 05:57:51;;;;;;;8.82;7.93;;;8.50;99.90;;;8.07;100.00;101260.50;4116348;28;20105;-67
2021/10/17 05:59:52;;;;;;;8.98;7.75;;;8.60;99.90;;;8.05;100.00;101259.81;4118093;28;20038;-68
2021/10/17 06:01:53;;;;;;;14.07;8.07;;;8.60;99.90;;;7.99;100.00;101255.06;4122406;28;20065;-68
2021/10/17 06:03:54;;;;;;;10.48;8.15;;;8.60;99.90;;;8.01;100.00;101259.22;4122852;28;20035;-68
2021/10/17 06:06:05;;;;;;;8.18;7.25;;;8.50;99.90;;;8.03;100.00;101259.94;4122680;28;20054;-68
2021/10/17 06:08:06;;;;;;;9.27;7.55;;;8.50;99.90;;;8.09;100.00;101262.06;4122729;28;20066;-68
2021/10/17 06:10:10;;;;;;;8.57;7.25;;;8.60;99.90;;;8.14;100.00;101259.03;4121444;28;20039;-68
2021/10/17 06:12:11;;;;;;;11.20;7.10;;;8.60;99.90;;;8.14;100.00;101261.66;4121591;28;20038;-68
2021/10/17 06:14:12;;;;;;;10.48;7.72;;;8.50;99.90;;;8.10;100.00;101262.88;4121505;28;20035;-68
2021/10/17 06:16:12;;;;;;;12.00;8.82;;;8.60;99.90;;;7.99;100.00;101269.03;4122197;28;20034;-68
2021/10/17 06:18:13;;;;;;;8.20;7.40;;;8.60;99.90;;;8.10;100.00;101278.63;4122575;28;20498;-68
2021/10/17 06:20:14;;;;;;;8.77;7.60;;;8.50;99.90;;;8.16;100.00;101273.72;4122630;28;20022;-68
2021/10/17 06:22:15;;;;;;;11.43;7.85;;;8.50;99.90;;;8.22;100.00;101269.72;4121266;28;20122;-68
2021/10/17 06:24:16;;;;;;;10.43;7.03;;;8.60;99.90;;;8.19;100.00;101270.00;4122537;28;20033;-68
2021/10/17 06:26:17;;;;;;;8.60;7.32;;;8.60;99.90;;;8.15;100.00;101273.84;4122391;28;20035;-68
2021/10/17 06:28:18;;;;;;;11.10;6.88;;;8.60;99.90;;;8.14;100.00;101272.19;4121196;28;20110;-68
2021/10/17 06:30:19;;;;;;;9.27;6.97;;;8.60;99.90;;;8.16;100.00;101281.59;4122533;28;20030;-68
2021/10/17 06:32:20;;;;;;;11.20;7.88;;;8.60;99.90;;;8.14;100.00;101272.19;4122195;28;20096;-68
2021/10/17 06:34:21;;;;;;;8.57;7.25;;;8.60;99.90;;;8.12;100.00;101276.75;4121140;28;20031;-68
2021/10/17 06:36:22;;;;;;;11.20;8.40;;;8.60;99.90;;;8.13;100.00;101271.34;4121292;28;20053;-68
2021/10/17 06:38:23;;;;;;;8.35;7.13;;;8.60;99.90;;;8.11;100.00;101277.69;4121221;28;20468;-68
2021/10/17 06:40:24;;;;;;;10.48;8.30;;;8.60;99.90;;;8.15;100.00;101284.38;4121037;28;20065;-68
2021/10/17 06:42:25;;;;;;;8.80;7.90;;;8.60;99.90;;;8.11;100.00;101273.28;4122043;28;20035;-68
2021/10/17 06:44:26;;;;;;;9.15;7.78;;;8.60;99.90;;;8.17;100.00;101282.44;4122518;28;20027;-68
2021/10/17 06:46:27;;;;;;;10.60;8.57;;;8.60;99.90;;;8.20;100.00;101279.56;4120786;28;20277;-68
2021/10/17 06:48:28;;;;;;;10.45;8.70;;;8.60;99.90;;;8.20;100.00;101282.19;4120965;28;20034;-68
2021/10/17 06:50:29;;;;;;;8.45;7.55;;;8.70;99.90;;;8.18;100.00;101284.13;4122095;28;20035;-68
2021/10/17 06:52:29;;;;;;;7.57;6.70;;;8.70;99.90;;;8.17;100.00;101274.56;4120960;28;20120;-68
2021/10/17 06:54:30;;;;;;;9.52;7.75;;;8.70;99.90;;;8.25;100.00;101285.25;4122240;28;20034;-68
2021/10/17 06:56:32;;;;;;;9.75;7.32;;;8.70;99.90;;;8.22;100.00;101290.75;4121185;28;20076;-68
2021/10/17 06:58:33;;;;;;;8.80;6.93;;;8.80;99.90;;;8.26;100.00;101282.50;4123157;28;20027;-68
2021/10/17 07:00:35;;;;;;;10.05;7.70;;;8.70;99.90;;;8.32;100.00;101296.97;4105675;29;20031;-68
2021/10/17 07:02:36;;;;;;;10.27;7.78;;;8.80;99.90;;;8.31;100.00;101290.03;4121604;28;20485;-67
2021/10/17 07:04:37;;;;;;;10.90;8.43;;;8.80;99.90;;;8.36;100.00;101298.38;4122038;28;20027;-67
2021/10/17 07:06:39;;;;;;;9.10;7.88;;;8.80;99.90;;;8.37;100.00;101300.03;4122698;28;20409;-67
2021/10/17 07:08:41;;;;;;;9.63;7.07;;;8.80;99.90;;;8.43;100.00;101304.78;4121756;28;20023;-67
2021/10/17 07:10:42;;;;;;;11.00;8.02;;;8.90;99.90;;;8.43;100.00;101302.16;4122596;28;20030;-67
2021/10/17 07:12:43;;;;;;;10.32;7.78;;;8.90;99.90;;;8.40;100.00;101301.56;4119028;28;20107;-67
2021/10/17 07:14:44;;;;;;;9.15;7.82;;;8.90;99.90;;;8.33;100.00;101303.91;4118920;28;20051;-67
2021/10/17 07:16:45;;;;;;;9.48;7.25;;;8.90;99.90;;;8.32;100.00;101302.22;4118681;28;20101;-67
2021/10/17 07:18:46;;;;;;;10.90;7.93;;;8.90;99.90;;;8.29;100.00;101303.31;4120283;28;20713;-67
2021/10/17 07:20:47;;;;;;;12.43;8.10;;;8.90;99.90;;;8.37;100.00;101307.91;4119423;28;20073;-67
2021/10/17 07:22:48;;;;;;;9.68;8.68;;;8.90;99.90;;;8.44;100.00;101303.00;4120083;28;20039;-67
2021/10/17 07:24:49;;;;;;;9.52;7.25;;;8.90;99.90;;;8.52;100.00;101301.38;4119073;28;20398;-67
2021/10/17 07:26:50;;;;;;;9.80;7.80;;;9.00;99.90;;;8.63;100.00;101309.19;4117433;28;20450;-67
2021/10/17 07:28:51;;;;;;;9.18;7.13;;;9.10;99.90;;;8.63;100.00;101298.66;4119824;28;20102;-67
2021/10/17 07:30:52;;;;;;;9.20;7.32;;;9.10;99.90;;;8.62;100.00;101302.28;4119891;28;20033;-66
2021/10/17 07:32:53;;;;;;;11.70;7.40;;;9.20;99.90;;;8.64;100.00;101296.88;4118570;28;20066;-66
2021/10/17 07:34:54;;;;;;;8.20;7.13;;;9.20;99.90;;;8.62;100.00;101307.53;4120091;28;20442;-66
2021/10/17 07:36:56;;;;;;;9.13;7.38;;;9.30;99.90;;;8.73;100.00;101306.63;4118733;28;20033;-66
2021/10/17 07:38:57;;;;;;;7.97;7.13;;;9.30;99.90;;;8.76;100.00;101299.31;4119766;28;20035;-66
2021/10/17 07:40:58;;;;;;;8.30;7.18;;;9.40;99.90;;;8.87;100.00;101295.75;4102622;29;20028;-66
2021/10/17 07:42:59;;;;;;;12.82;7.57;;;9.40;99.90;;;8.90;100.00;101298.94;4151114;28;20026;-67
2021/10/17 07:45:00;;;;;;;7.85;6.93;;;9.50;99.90;;;9.01;100.00;101289.31;4119176;28;20035;-67
2021/10/17 07:47:01;;;;;;;8.23;7.30;;;9.60;99.90;;;9.08;100.00;101295.72;4118591;28;20057;-67
2021/10/17 07:49:03;;;;;;;7.82;7.00;;;9.60;99.90;;;8.98;100.00;101286.94;4117713;28;20022;-67
2021/10/17 07:51:08;;;;;;;10.93;7.95;;;9.70;99.90;;;9.06;100.00;101303.72;4119281;28;20033;-67
2021/10/17 07:53:09;;;;;;;9.38;8.30;;;9.70;99.90;;;9.07;100.00;101309.84;4118250;28;20275;-67
2021/10/17 07:55:10;;;;;;;8.82;7.53;;;9.80;99.90;;;9.19;100.00;101308.78;4115862;28;20514;-67
2021/10/17 07:57:13;;;;;;;9.90;7.00;;;9.80;99.90;;;9.27;100.00;101308.94;4117478;28;20061;-67
2021/10/17 07:59:14;;;;;;;8.63;6.85;;;9.90;99.90;;;9.43;100.00;101317.16;4118961;28;20035;-67
2021/10/17 08:01:15;;;;;;;7.65;6.82;;;10.00;99.90;;;9.51;100.00;101313.84;4118775;28;20029;-67
2021/10/17 08:03:16;;;;;;;10.45;7.90;;;10.10;99.90;;;9.61;100.00;101315.56;4117798;28;20031;-67
2021/10/17 08:05:17;;;;;;;7.68;6.88;;;10.20;99.90;;;9.71;100.00;101311.09;4119340;28;20027;-67
2021/10/17 08:07:18;;;;;;;8.50;7.57;;;10.30;99.90;;;9.78;100.00;101316.66;4119466;28;20479;-67
2021/10/17 08:09:20;;;;;;;7.57;6.78;;;10.40;99.90;;;9.84;100.00;101316.97;4119675;28;20023;-67
2021/10/17 08:11:21;;;;;;;9.65;8.50;;;10.50;99.90;;;9.93;100.00;101318.78;4119384;28;20110;-67
2021/10/17 08:13:22;;;;;;;8.85;7.95;;;10.60;99.90;;;10.03;100.00;101321.41;4119265;28;20546;-67
2021/10/17 08:15:24;;;;;;;9.60;7.78;;;10.60;99.90;;;10.06;100.00;101312.41;4118460;28;20026;-67
2021/10/17 08:17:27;;;;;;;9.05;7.00;;;10.70;99.90;;;10.13;100.00;101318.75;4117874;28;20043;-68
2021/10/17 08:19:28;;;;;;;8.85;7.45;;;10.80;99.90;;;10.24;100.00;101313.41;4119523;28;20035;-67
2021/10/17 08:21:30;;;;;;;9.95;8.20;;;10.90;99.90;;;10.36;100.00;101325.47;4118099;28;20498;-67
2021/10/17 08:23:31;;;;;;;10.80;8.75;;;10.90;99.90;;;10.48;100.00;101327.78;4119338;28;20034;-68
2021/10/17 08:25:32;;;;;;;12.18;8.68;;;11.00;99.90;;;10.48;100.00;101329.63;4117889;28;20062;-67
2021/10/17 08:27:35;;;;;;;11.07;7.88;;;11.10;99.90;;;10.55;100.00;101323.63;4119229;28;20109;-67